Time;durP1;ratioP1;P1;durP2;ratioP2;P2;SDS_P1;SDS_P2;PMS_P1;PMS_P2;Temp;Humidity;BMP_temperature;BMP_pressure;BME280_temperature;BME280_humidity;BME280_pressure;Samples;Min_cycle;Max_cycle;Signal;HPM_P1;HPM_P2
2023/12/27 00:01:30;;;;;;;3.83;1.10;;;8.20;99.90;;;;;;4963959;28;20092;-70
2023/12/27 00:03:55;;;;;;;4.53;1.60;;;8.20;99.90;;;;;;4968635;28;20495;-72
2023/12/27 00:06:21;;;;;;;2.50;1.00;;;8.20;99.90;;;;;;4964646;28;20031;-72
2023/12/27 00:08:46;;;;;;;3.80;1.02;;;8.10;99.90;;;;;;4961182;28;20035;-71
2023/12/27 00:11:16;;;;;;;2.47;1.20;;;8.20;99.90;;;;;;4960423;28;20024;-71
2023/12/27 00:13:42;;;;;;;1.42;0.77;;;8.10;99.90;;;;;;4966865;28;20489;-72
2023/12/27 00:16:07;;;;;;;3.08;0.98;;;8.10;99.90;;;;;;4958251;28;20078;-71
2023/12/27 00:18:33;;;;;;;2.85;1.00;;;8.10;99.90;;;;;;4968103;28;20061;-71
2023/12/27 00:20:59;;;;;;;1.58;1.10;;;8.00;99.90;;;;;;4971183;28;20031;-71
2023/12/27 00:23:25;;;;;;;4.15;0.98;;;8.00;99.90;;;;;;4957487;28;20047;-71
2023/12/27 00:25:51;;;;;;;2.55;1.10;;;8.00;99.90;;;;;;4959722;28;20496;-71
2023/12/27 00:28:17;;;;;;;2.95;0.88;;;8.00;99.90;;;;;;4966402;28;20034;-71
2023/12/27 00:30:42;;;;;;;2.25;1.15;;;8.00;99.90;;;;;;4971211;28;20367;-70
2023/12/27 00:33:08;;;;;;;1.88;1.13;;;8.00;99.90;;;;;;4962343;28;20046;-72
2023/12/27 00:35:33;;;;;;;4.07;1.35;;;8.00;99.90;;;;;;4962991;28;20423;-71
2023/12/27 00:37:59;;;;;;;3.15;1.55;;;8.00;99.90;;;;;;4970366;28;20110;-70
2023/12/27 00:40:25;;;;;;;4.30;1.25;;;8.00;99.90;;;;;;4971010;28;20464;-71
2023/12/27 00:42:50;;;;;;;4.65;1.13;;;8.00;99.90;;;;;;4963773;28;20068;-70
2023/12/27 00:45:16;;;;;;;2.05;0.90;;;8.00;99.90;;;;;;4967727;28;20042;-71
2023/12/27 00:47:46;;;;;;;3.05;1.15;;;8.00;99.90;;;;;;4967435;28;20031;-72
2023/12/27 00:50:11;;;;;;;3.13;1.10;;;7.90;99.90;;;;;;4966279;28;20027;-72
2023/12/27 00:52:37;;;;;;;3.45;1.00;;;7.90;99.90;;;;;;4963019;28;20038;-70
2023/12/27 00:55:03;;;;;;;1.98;1.08;;;7.90;99.90;;;;;;4973352;28;20030;-70
2023/12/27 00:57:29;;;;;;;2.53;0.93;;;7.80;99.90;;;;;;4961725;28;20031;-70
2023/12/27 00:59:54;;;;;;;2.58;1.10;;;7.80;99.90;;;;;;4968398;28;20031;-70
2023/12/27 01:02:20;;;;;;;4.03;1.00;;;7.80;99.90;;;;;;4965426;28;20042;-71
2023/12/27 01:04:45;;;;;;;1.40;0.88;;;7.70;99.90;;;;;;4958106;28;20047;-70
2023/12/27 01:07:11;;;;;;;2.33;1.05;;;7.70;99.90;;;;;;4968236;28;20033;-72
2023/12/27 01:09:36;;;;;;;2.05;1.00;;;7.70;99.90;;;;;;4961575;28;20032;-71
2023/12/27 01:12:02;;;;;;;3.55;1.08;;;7.70;99.90;;;;;;4957846;28;20022;-70
2023/12/27 01:14:28;;;;;;;4.13;1.02;;;7.70;99.90;;;;;;4970271;28;20047;-70
2023/12/27 01:16:53;;;;;;;2.35;1.55;;;7.70;99.90;;;;;;4944425;28;20512;-70
2023/12/27 01:19:19;;;;;;;3.72;1.20;;;7.70;99.90;;;;;;4953382;29;20039;-70
2023/12/27 01:21:45;;;;;;;3.55;1.10;;;7.70;99.90;;;;;;4947522;29;20158;-71
2023/12/27 01:24:11;;;;;;;2.28;1.20;;;7.80;99.90;;;;;;4944863;29;20047;-71
2023/12/27 01:26:36;;;;;;;4.00;1.00;;;7.80;99.90;;;;;;4940422;29;20034;-71
2023/12/27 01:29:02;;;;;;;4.40;1.35;;;7.80;99.90;;;;;;4948700;29;20162;-71
2023/12/27 01:31:28;;;;;;;2.10;1.00;;;7.80;99.90;;;;;;4948781;29;20031;-70
2023/12/27 01:33:53;;;;;;;2.25;0.93;;;7.80;99.90;;;;;;4937758;29;20493;-70
2023/12/27 01:36:20;;;;;;;4.40;1.20;;;7.70;99.90;;;;;;4943691;29;20035;-71
2023/12/27 01:38:45;;;;;;;2.92;1.00;;;7.70;99.90;;;;;;4949387;29;20555;-71
2023/12/27 01:41:11;;;;;;;1.00;0.85;;;7.70;99.90;;;;;;4941296;29;20103;-71
2023/12/27 01:43:37;;;;;;;2.17;1.00;;;7.70;99.90;;;;;;4949389;29;20492;-71
2023/12/27 01:46:03;;;;;;;1.95;1.00;;;7.70;99.90;;;;;;4945663;29;20087;-71
2023/12/27 01:48:30;;;;;;;4.15;1.23;;;7.70;99.90;;;;;;4951681;29;20027;-70
2023/12/27 01:50:58;;;;;;;3.25;1.33;;;7.70;99.90;;;;;;4950314;29;20035;-71
2023/12/27 01:53:24;;;;;;;1.92;1.00;;;7.70;99.90;;;;;;4945209;29;20036;-71
2023/12/27 01:55:51;;;;;;;4.65;1.10;;;7.70;99.90;;;;;;4947343;29;20212;-72
2023/12/27 01:58:17;;;;;;;4.22;1.30;;;7.70;99.90;;;;;;4955694;29;20023;-71
2023/12/27 02:00:45;;;;;;;5.78;1.15;;;7.70;99.90;;;;;;4948963;29;20055;-71
2023/12/27 02:03:11;;;;;;;3.55;1.30;;;7.70;99.90;;;;;;4955542;29;20024;-71
2023/12/27 02:05:38;;;;;;;6.40;1.83;;;7.70;99.90;;;;;;4961172;29;20035;-71
2023/12/27 02:08:05;;;;;;;4.93;1.42;;;7.70;99.90;;;;;;4961939;29;20020;-73
2023/12/27 02:10:31;;;;;;;3.58;1.85;;;7.70;99.90;;;;;;4961760;29;20023;-70
2023/12/27 02:12:56;;;;;;;2.90;1.35;;;7.70;99.90;;;;;;4944143;29;20389;-71
2023/12/27 02:15:22;;;;;;;5.93;1.75;;;7.70;99.90;;;;;;4945801;28;20083;-70
2023/12/27 02:17:48;;;;;;;3.10;1.50;;;7.70;99.90;;;;;;4961552;28;20019;-71
2023/12/27 02:20:14;;;;;;;4.30;1.80;;;7.60;99.90;;;;;;4961298;28;20084;-71
2023/12/27 02:22:42;;;;;;;6.90;1.65;;;7.60;99.90;;;;;;4959147;28;20407;-70
2023/12/27 02:25:08;;;;;;;4.78;1.77;;;7.50;99.90;;;;;;4964746;28;20085;-71
2023/12/27 02:27:33;;;;;;;5.10;2.00;;;7.50;99.90;;;;;;4960976;28;20030;-72
2023/12/27 02:29:59;;;;;;;5.32;1.70;;;7.40;99.90;;;;;;4961196;28;20420;-72
2023/12/27 02:32:26;;;;;;;3.17;1.50;;;7.30;99.90;;;;;;4963839;28;20023;-72
2023/12/27 02:34:52;;;;;;;6.90;2.10;;;7.30;99.90;;;;;;4962796;28;20073;-72
2023/12/27 02:37:17;;;;;;;1.90;1.00;;;7.20;99.90;;;;;;4962007;28;20027;-73
2023/12/27 02:39:43;;;;;;;3.08;0.95;;;7.30;99.90;;;;;;4961690;28;20031;-72
2023/12/27 02:42:08;;;;;;;5.05;1.05;;;7.20;99.90;;;;;;4965765;28;20448;-72
2023/12/27 02:44:34;;;;;;;2.30;1.05;;;7.20;99.90;;;;;;4963350;28;20031;-72
2023/12/27 02:47:01;;;;;;;4.97;1.05;;;7.20;99.90;;;;;;4961605;28;20031;-72
2023/12/27 02:49:27;;;;;;;3.10;1.13;;;7.20;99.90;;;;;;4960321;28;20027;-71
2023/12/27 02:51:52;;;;;;;4.72;1.80;;;7.20;99.90;;;;;;4962689;28;20031;-72
2023/12/27 02:54:18;;;;;;;5.55;1.52;;;7.20;99.90;;;;;;4948625;28;20039;-73
2023/12/27 02:56:44;;;;;;;4.68;1.50;;;7.20;99.90;;;;;;4969219;28;20058;-72
2023/12/27 02:59:09;;;;;;;3.15;1.10;;;7.20;99.90;;;;;;4964499;28;20055;-73
2023/12/27 03:01:35;;;;;;;3.50;1.50;;;7.20;99.90;;;;;;4964142;28;20033;-72
2023/12/27 03:04:01;;;;;;;1.85;1.20;;;7.20;99.90;;;;;;4971070;28;20034;-72
2023/12/27 03:06:26;;;;;;;4.55;1.75;;;7.20;99.90;;;;;;4966270;28;20527;-72
2023/12/27 03:08:53;;;;;;;4.68;1.20;;;7.20;99.90;;;;;;4963025;28;20022;-72
2023/12/27 03:11:19;;;;;;;2.75;1.20;;;7.20;99.90;;;;;;4960996;28;20031;-72
2023/12/27 03:13:45;;;;;;;5.45;1.23;;;7.10;99.90;;;;;;4960915;28;20063;-72
2023/12/27 03:16:11;;;;;;;3.67;0.90;;;7.10;99.90;;;;;;4966010;28;20520;-72
2023/12/27 03:18:38;;;;;;;2.08;0.93;;;7.10;99.90;;;;;;4969528;28;20037;-72
2023/12/27 03:21:04;;;;;;;3.53;1.20;;;7.10;99.90;;;;;;4971567;28;20031;-72
2023/12/27 03:23:29;;;;;;;2.10;1.20;;;7.10;99.90;;;;;;4970707;28;20094;-72
2023/12/27 03:25:55;;;;;;;3.67;1.08;;;7.10;99.90;;;;;;4963268;28;20365;-72
2023/12/27 03:28:21;;;;;;;3.97;0.90;;;7.10;99.90;;;;;;4970096;28;20077;-72
2023/12/27 03:30:47;;;;;;;2.75;0.90;;;7.10;99.90;;;;;;4960650;28;20111;-72
2023/12/27 03:33:12;;;;;;;4.13;1.27;;;7.10;99.90;;;;;;4959508;28;20452;-72
2023/12/27 03:35:38;;;;;;;2.40;1.08;;;7.10;99.90;;;;;;4963487;28;20031;-72
2023/12/27 03:38:03;;;;;;;3.30;1.02;;;7.10;99.90;;;;;;4969228;28;20023;-73
2023/12/27 03:40:29;;;;;;;3.47;0.90;;;7.10;99.90;;;;;;4965138;28;20465;-71
2023/12/27 03:42:54;;;;;;;2.58;1.30;;;7.10;99.90;;;;;;4961608;28;20034;-72
2023/12/27 03:45:20;;;;;;;2.83;1.08;;;7.10;99.90;;;;;;4967861;28;20071;-73
2023/12/27 03:47:45;;;;;;;4.22;0.98;;;7.10;99.90;;;;;;4959270;28;20027;-71
2023/12/27 03:50:12;;;;;;;5.68;1.30;;;7.20;99.90;;;;;;4961507;28;20041;-72
2023/12/27 03:52:38;;;;;;;5.70;1.42;;;7.20;99.90;;;;;;4965461;28;20043;-72
2023/12/27 03:55:04;;;;;;;5.70;1.40;;;7.20;99.90;;;;;;4969902;28;20034;-73
2023/12/27 03:57:30;;;;;;;2.85;1.55;;;7.20;99.90;;;;;;4970161;28;20030;-71
2023/12/27 03:59:56;;;;;;;3.13;1.20;;;7.20;99.90;;;;;;4959997;28;20027;-72
2023/12/27 04:02:21;;;;;;;3.97;1.27;;;7.20;99.90;;;;;;4965700;28;20030;-72
2023/12/27 04:04:47;;;;;;;2.65;1.00;;;7.20;99.90;;;;;;4970663;28;20030;-72
2023/12/27 04:07:13;;;;;;;3.60;1.55;;;7.20;99.90;;;;;;4962021;28;20031;-72
2023/12/27 04:09:40;;;;;;;3.20;1.35;;;7.20;99.90;;;;;;4962370;28;20049;-72
2023/12/27 04:12:06;;;;;;;3.58;1.13;;;7.20;99.90;;;;;;4959087;28;20023;-72
2023/12/27 04:14:32;;;;;;;4.97;1.42;;;7.20;99.90;;;;;;4963784;28;20098;-72
2023/12/27 04:16:58;;;;;;;5.10;1.42;;;7.20;99.90;;;;;;4960185;28;20050;-72
2023/12/27 04:19:23;;;;;;;3.05;1.23;;;7.20;99.90;;;;;;4972042;28;20388;-73
2023/12/27 04:21:49;;;;;;;5.53;1.98;;;7.30;99.90;;;;;;4958801;28;20034;-72
2023/12/27 04:24:14;;;;;;;3.45;1.30;;;7.20;99.90;;;;;;4971177;28;20034;-72
2023/12/27 04:26:41;;;;;;;12.48;2.10;;;7.20;99.90;;;;;;4964969;28;20468;-72
2023/12/27 04:29:08;;;;;;;5.47;1.98;;;7.30;99.90;;;;;;4969033;28;20039;-72
2023/12/27 04:31:35;;;;;;;3.40;1.88;;;7.30;99.90;;;;;;4969108;28;20031;-72
2023/12/27 04:34:01;;;;;;;4.63;2.00;;;7.30;99.90;;;;;;4958666;28;20400;-73
2023/12/27 04:36:26;;;;;;;2.55;1.30;;;7.30;99.90;;;;;;4965218;28;20112;-71
2023/12/27 04:38:52;;;;;;;5.07;1.83;;;7.30;99.90;;;;;;4967863;28;20038;-72
2023/12/27 04:41:18;;;;;;;2.88;1.45;;;7.20;99.90;;;;;;4961225;28;20030;-74
2023/12/27 04:43:43;;;;;;;4.78;1.80;;;7.20;99.90;;;;;;4958876;28;20421;-72
2023/12/27 04:46:10;;;;;;;3.95;1.83;;;7.20;99.90;;;;;;4966395;28;20027;-72
2023/12/27 04:48:36;;;;;;;2.60;1.92;;;7.20;99.90;;;;;;4963508;28;20035;-72
2023/12/27 04:51:01;;;;;;;6.25;1.80;;;7.30;99.90;;;;;;4967359;28;20026;-72
2023/12/27 04:53:27;;;;;;;5.82;2.10;;;7.30;99.90;;;;;;4964361;28;20070;-72
2023/12/27 04:55:52;;;;;;;3.45;2.03;;;7.30;99.90;;;;;;4957895;28;20428;-72
2023/12/27 04:58:18;;;;;;;4.18;1.63;;;7.30;99.90;;;;;;4965250;28;20062;-72
2023/12/27 05:00:44;;;;;;;2.75;2.05;;;7.30;99.90;;;;;;4960487;28;20050;-72
2023/12/27 05:03:09;;;;;;;3.28;1.80;;;7.20;99.90;;;;;;4972269;28;20042;-72
2023/12/27 05:05:35;;;;;;;3.53;1.63;;;7.20;99.90;;;;;;4967959;28;20027;-72
2023/12/27 05:08:00;;;;;;;5.43;1.73;;;7.10;99.90;;;;;;4957580;28;20046;-72
2023/12/27 05:10:26;;;;;;;5.40;1.83;;;7.00;99.90;;;;;;4962279;28;20137;-72
2023/12/27 05:12:53;;;;;;;5.07;1.73;;;7.00;99.90;;;;;;4961492;28;20035;-72
2023/12/27 05:15:19;;;;;;;4.38;1.70;;;6.90;99.90;;;;;;4959908;28;21671;-72
2023/12/27 05:17:45;;;;;;;4.38;1.60;;;6.80;99.90;;;;;;4961042;28;20366;-72
2023/12/27 05:20:11;;;;;;;5.22;1.92;;;6.70;99.90;;;;;;4967165;28;20098;-72
2023/12/27 05:22:39;;;;;;;2.63;1.65;;;6.60;99.90;;;;;;4970928;28;20034;-72
2023/12/27 05:25:08;;;;;;;6.85;2.72;;;6.50;99.90;;;;;;4970199;28;20031;-72
2023/12/27 05:27:34;;;;;;;5.43;2.50;;;6.30;99.90;;;;;;4961699;28;20121;-72
2023/12/27 05:30:02;;;;;;;3.97;2.70;;;6.30;99.90;;;;;;4958226;28;20481;-73
2023/12/27 05:32:27;;;;;;;3.85;2.45;;;6.20;99.90;;;;;;4963103;28;20102;-72
2023/12/27 05:34:53;;;;;;;5.30;2.35;;;6.10;99.90;;;;;;4960902;28;20118;-72
2023/12/27 05:37:19;;;;;;;7.70;2.00;;;6.10;99.90;;;;;;4966496;28;20027;-73
2023/12/27 05:39:45;;;;;;;5.60;2.35;;;5.90;99.90;;;;;;4971827;28;20145;-72
2023/12/27 05:42:13;;;;;;;5.28;2.08;;;5.90;99.90;;;;;;4963545;28;20106;-73
2023/12/27 05:44:39;;;;;;;6.25;1.45;;;5.80;99.90;;;;;;4962110;28;20042;-71
2023/12/27 05:47:05;;;;;;;7.07;1.98;;;5.80;99.90;;;;;;4966249;28;20027;-73
2023/12/27 05:49:31;;;;;;;5.93;1.65;;;;;;;;;;4969170;28;20042;-72
2023/12/27 05:51:56;;;;;;;3.95;1.85;;;5.80;99.90;;;;;;4963303;28;20478;-72
2023/12/27 05:54:23;;;;;;;2.70;1.30;;;5.70;99.90;;;;;;4964908;28;20109;-73
2023/12/27 05:56:49;;;;;;;3.35;1.80;;;5.60;99.90;;;;;;4969925;28;20119;-72
2023/12/27 05:59:15;;;;;;;3.05;1.50;;;5.60;99.90;;;;;;4961125;28;20077;-72
2023/12/27 06:01:47;;;;;;;7.00;1.80;;;5.50;99.90;;;;;;4962590;28;20027;-72
2023/12/27 06:04:15;;;;;;;3.95;1.75;;;5.50;99.90;;;;;;4959522;28;20158;-72
2023/12/27 06:06:41;;;;;;;5.70;1.73;;;5.40;99.90;;;;;;4960323;28;20032;-72
2023/12/27 06:09:06;;;;;;;4.53;2.13;;;5.40;99.90;;;;;;4963319;28;20154;-72
2023/12/27 06:11:32;;;;;;;4.25;2.03;;;5.30;99.90;;;;;;4954537;28;20034;-71
2023/12/27 06:13:58;;;;;;;6.30;2.10;;;5.30;99.90;;;;;;4966771;28;20512;-72
2023/12/27 06:16:24;;;;;;;5.15;2.05;;;5.20;99.90;;;;;;4956437;28;20058;-72
2023/12/27 06:18:54;;;;;;;7.43;2.38;;;5.20;99.90;;;;;;4969359;28;20038;-71
2023/12/27 06:21:20;;;;;;;7.95;3.10;;;5.30;99.90;;;;;;4968251;28;20035;-73
2023/12/27 06:23:45;;;;;;;9.82;3.47;;;5.30;99.90;;;;;;4967979;28;20041;-72
2023/12/27 06:26:11;;;;;;;7.60;3.22;;;5.40;99.90;;;;;;4965062;28;20023;-73
2023/12/27 06:28:36;;;;;;;10.48;4.30;;;5.40;99.90;;;;;;4967332;28;20111;-72
2023/12/27 06:31:02;;;;;;;7.72;3.55;;;5.50;99.90;;;;;;4974312;28;20025;-73
2023/12/27 06:33:28;;;;;;;7.40;3.28;;;5.50;99.90;;;;;;4963101;28;20030;-72
2023/12/27 06:35:53;;;;;;;9.65;3.40;;;5.60;99.90;;;;;;4963972;28;20034;-72
2023/12/27 06:38:19;;;;;;;10.43;3.42;;;5.60;99.90;;;;;;4962826;28;20590;-72
2023/12/27 06:40:44;;;;;;;9.07;3.38;;;5.60;99.90;;;;;;4963732;28;20023;-73
2023/12/27 06:43:10;;;;;;;8.20;3.28;;;5.60;99.90;;;;;;4966217;28;20062;-72
2023/12/27 06:45:35;;;;;;;8.55;3.30;;;5.60;99.90;;;;;;4966230;28;20489;-72
2023/12/27 06:48:02;;;;;;;8.32;2.80;;;5.70;99.90;;;;;;4969030;28;20384;-72
2023/12/27 06:50:28;;;;;;;5.03;2.67;;;5.60;99.90;;;;;;4962716;28;20085;-72
2023/12/27 06:52:54;;;;;;;7.43;3.15;;;5.70;99.90;;;;;;4967494;28;20460;-73
2023/12/27 06:55:20;;;;;;;6.70;2.85;;;5.60;99.90;;;;;;4968966;28;20600;-73
2023/12/27 06:57:45;;;;;;;7.97;2.83;;;5.60;99.90;;;;;;4956842;28;20027;-72
2023/12/27 07:00:11;;;;;;;7.18;2.95;;;5.60;99.90;;;;;;4960967;28;20023;-73
2023/12/27 07:02:38;;;;;;;9.25;2.97;;;5.50;99.90;;;;;;4967847;28;20058;-73
2023/12/27 07:05:04;;;;;;;7.40;2.83;;;5.60;99.90;;;;;;4973559;28;20050;-73
2023/12/27 07:07:30;;;;;;;9.23;2.90;;;5.50;99.90;;;;;;4960704;28;20424;-72
2023/12/27 07:09:55;;;;;;;6.97;3.45;;;5.60;99.90;;;;;;4963104;28;20023;-72
2023/12/27 07:12:22;;;;;;;8.63;3.05;;;5.60;99.90;;;;;;4961418;28;20026;-73
2023/12/27 07:14:49;;;;;;;9.77;3.25;;;5.60;99.90;;;;;;4962856;28;20027;-72
2023/12/27 07:17:15;;;;;;;4.95;2.95;;;5.60;99.90;;;;;;4963332;28;20101;-73
2023/12/27 07:19:40;;;;;;;6.20;3.03;;;5.60;99.90;;;;;;4971021;28;20047;-72
2023/12/27 07:22:06;;;;;;;6.13;3.03;;;5.60;99.90;;;;;;4973087;28;20052;-72
2023/12/27 07:24:31;;;;;;;9.10;2.85;;;5.50;99.90;;;;;;4971300;28;20027;-73
2023/12/27 07:26:57;;;;;;;5.95;2.97;;;5.50;99.90;;;;;;4961874;28;20107;-72
2023/12/27 07:29:23;;;;;;;7.60;2.95;;;5.50;99.90;;;;;;4962090;28;20031;-72
2023/12/27 07:31:49;;;;;;;6.25;2.88;;;5.50;99.90;;;;;;4967766;28;20659;-73
2023/12/27 07:34:15;;;;;;;7.03;3.53;;;5.50;99.90;;;;;;4969214;28;20042;-73
2023/12/27 07:36:41;;;;;;;6.80;3.40;;;5.50;99.90;;;;;;4970150;28;20034;-73
2023/12/27 07:39:09;;;;;;;7.95;3.20;;;5.50;99.90;;;;;;4971857;28;20401;-73
2023/12/27 07:41:35;;;;;;;7.93;3.33;;;5.50;99.90;;;;;;4964037;28;20065;-72
2023/12/27 07:44:00;;;;;;;4.78;2.97;;;5.60;99.90;;;;;;4965107;28;20480;-73
2023/12/27 07:46:26;;;;;;;6.70;3.20;;;5.60;99.90;;;;;;4965568;28;20392;-73
2023/12/27 07:48:52;;;;;;;10.13;3.08;;;5.60;99.90;;;;;;4964462;28;20085;-72
2023/12/27 07:51:17;;;;;;;8.07;4.15;;;5.60;99.90;;;;;;4968269;28;20110;-73
2023/12/27 07:53:43;;;;;;;8.88;4.18;;;5.70;99.90;;;;;;4966333;28;20035;-72
2023/12/27 07:56:12;;;;;;;10.15;5.10;;;5.70;99.90;;;;;;4963577;28;20031;-72
2023/12/27 07:58:37;;;;;;;15.05;5.78;;;5.70;99.90;;;;;;4961675;28;20166;-72
2023/12/27 08:01:03;;;;;;;13.15;5.90;;;5.70;99.90;;;;;;4955661;28;20508;-72
2023/12/27 08:03:29;;;;;;;12.30;5.97;;;5.70;99.90;;;;;;4967998;28;20041;-73
2023/12/27 08:05:54;;;;;;;10.70;5.25;;;5.70;99.90;;;;;;4955690;28;20485;-73
2023/12/27 08:08:20;;;;;;;9.48;4.05;;;5.70;99.90;;;;;;4957947;28;20034;-73
2023/12/27 08:10:45;;;;;;;7.97;4.40;;;5.80;99.90;;;;;;4961710;28;20026;-72
2023/12/27 08:13:11;;;;;;;9.20;4.40;;;5.80;99.90;;;;;;4970505;28;20516;-73
2023/12/27 08:15:37;;;;;;;10.95;4.22;;;5.80;99.90;;;;;;4956893;28;20144;-73
2023/12/27 08:18:03;;;;;;;11.32;4.68;;;5.80;99.90;;;;;;4961839;28;20054;-74
2023/12/27 08:20:30;;;;;;;7.45;4.50;;;5.80;99.90;;;;;;4966472;28;20392;-72
2023/12/27 08:22:55;;;;;;;10.30;5.85;;;5.80;99.90;;;;;;4967669;28;20559;-73
2023/12/27 08:25:21;;;;;;;9.52;5.35;;;5.80;99.90;;;;;;4969887;28;20101;-73
2023/12/27 08:27:46;;;;;;;10.60;5.45;;;5.90;99.90;;;;;;4965468;28;20641;-72
2023/12/27 08:30:13;;;;;;;12.32;5.03;;;5.90;99.90;;;;;;4968167;28;20027;-75
2023/12/27 08:32:39;;;;;;;11.35;4.80;;;5.90;99.90;;;;;;4967331;28;20035;-71
2023/12/27 08:35:05;;;;;;;7.55;4.40;;;6.00;99.90;;;;;;4968931;28;20023;-71
2023/12/27 08:37:30;;;;;;;9.02;4.78;;;6.00;99.90;;;;;;4959821;28;20558;-73
2023/12/27 08:39:56;;;;;;;7.03;4.38;;;6.20;99.90;;;;;;4965464;28;20034;-73
2023/12/27 08:42:22;;;;;;;10.73;4.13;;;6.20;99.90;;;;;;4961331;28;20023;-73
2023/12/27 08:44:47;;;;;;;11.27;4.80;;;6.30;99.90;;;;;;4959961;28;20038;-72
2023/12/27 08:47:14;;;;;;;7.85;4.22;;;6.40;99.90;;;;;;4970644;28;20392;-73
2023/12/27 08:49:39;;;;;;;9.68;4.72;;;6.40;99.90;;;;;;4963694;28;20035;-71
2023/12/27 08:52:05;;;;;;;9.00;4.72;;;6.50;99.90;;;;;;4968813;28;20035;-70
2023/12/27 08:54:31;;;;;;;11.80;5.60;;;6.60;99.90;;;;;;4965397;28;20074;-72
2023/12/27 08:56:57;;;;;;;11.70;5.10;;;6.60;99.90;;;;;;4963576;28;20026;-72
2023/12/27 08:59:23;;;;;;;8.35;5.18;;;6.60;99.90;;;;;;4961701;28;20023;-71
2023/12/27 09:01:48;;;;;;;12.68;6.22;;;6.50;99.90;;;;;;4958358;28;20019;-71
2023/12/27 09:04:14;;;;;;;8.80;4.50;;;6.50;99.90;;;;;;4965933;28;20038;-70
2023/12/27 09:06:39;;;;;;;11.13;5.72;;;6.60;99.90;;;;;;4959943;28;20054;-70
2023/12/27 09:09:05;;;;;;;11.25;5.72;;;6.70;99.90;;;;;;4962707;28;20033;-70
2023/12/27 09:11:30;;;;;;;10.55;3.40;;;6.80;99.90;;;;;;4960433;28;20023;-72
2023/12/27 09:13:56;;;;;;;10.90;2.55;;;6.90;99.90;;;;;;4964223;28;20031;-70
2023/12/27 09:16:22;;;;;;;9.75;3.20;;;6.90;99.90;;;;;;4961786;28;20047;-73
2023/12/27 09:18:47;;;;;;;6.57;3.03;;;6.90;99.90;;;;;;4961517;28;20023;-70
2023/12/27 09:21:13;;;;;;;4.90;2.38;;;6.90;99.90;;;;;;4964052;28;20486;-71
2023/12/27 09:23:38;;;;;;;6.95;2.80;;;6.90;99.90;;;;;;4960758;28;20033;-70
2023/12/27 09:26:12;;;;;;;7.07;3.20;;;6.90;99.90;;;;;;4963036;28;20449;-72
2023/12/27 09:28:38;;;;;;;6.32;2.60;;;7.00;99.90;;;;;;4962865;28;20027;-71
2023/12/27 09:31:03;;;;;;;11.25;3.72;;;7.20;99.90;;;;;;4959504;28;20041;-71
2023/12/27 09:33:29;;;;;;;9.30;3.08;;;7.30;99.90;;;;;;4964788;28;20094;-70
2023/12/27 09:35:55;;;;;;;5.78;2.70;;;7.50;99.90;;;;;;4969756;28;20023;-71
2023/12/27 09:38:20;;;;;;;8.52;2.40;;;7.50;99.90;;;;;;4956738;28;20041;-71
2023/12/27 09:40:47;;;;;;;6.25;2.35;;;7.60;99.90;;;;;;4960965;28;20129;-70
2023/12/27 09:43:15;;;;;;;5.25;2.00;;;7.60;99.90;;;;;;4962116;28;20030;-70
2023/12/27 09:45:41;;;;;;;6.95;2.50;;;7.50;99.90;;;;;;4962910;28;20122;-72
2023/12/27 09:48:11;;;;;;;7.18;2.58;;;7.40;99.90;;;;;;4965410;28;20026;-69
2023/12/27 09:50:40;;;;;;;8.37;2.50;;;7.40;99.90;;;;;;4958028;28;20451;-70
2023/12/27 09:53:09;;;;;;;5.75;2.10;;;7.30;99.90;;;;;;4971046;28;20294;-70
2023/12/27 09:55:34;;;;;;;7.80;2.28;;;7.30;99.90;;;;;;4960416;28;20031;-72
2023/12/27 09:58:00;;;;;;;7.30;2.38;;;7.30;99.90;;;;;;4964205;28;20086;-72
2023/12/27 10:00:28;;;;;;;7.55;2.75;;;7.30;99.90;;;;;;4967566;28;20042;-73
2023/12/27 10:02:58;;;;;;;6.13;2.40;;;7.40;99.90;;;;;;4964607;28;20543;-74
2023/12/27 10:05:38;;;;;;;6.28;2.22;;;7.40;99.90;;;;;;4967295;28;20136;-77
2023/12/27 10:08:04;;;;;;;8.23;2.30;;;7.50;99.90;;;;;;4951893;28;20158;-69
2023/12/27 10:10:30;;;;;;;10.73;2.60;;;7.50;99.90;;;;;;4963584;28;20118;-70
2023/12/27 10:12:59;;;;;;;8.63;3.22;;;7.60;99.90;;;;;;4968409;28;20043;-73
2023/12/27 10:15:25;;;;;;;4.40;2.35;;;7.70;99.90;;;;;;4965845;28;20388;-69
2023/12/27 10:17:50;;;;;;;2.92;1.90;;;7.70;99.90;;;;;;4963570;28;20019;-74
2023/12/27 10:20:33;;;;;;;7.60;3.15;;;7.80;99.90;;;;;;4969434;28;20118;-69
2023/12/27 10:23:00;;;;;;;5.05;2.22;;;7.90;99.90;;;;;;4966056;28;20034;-69
2023/12/27 10:25:28;;;;;;;8.02;2.78;;;8.10;99.90;;;;;;4964873;28;20023;-74
2023/12/27 10:27:54;;;;;;;10.48;3.22;;;8.20;99.90;;;;;;4963695;28;20023;-70
2023/12/27 10:30:20;;;;;;;3.92;2.20;;;8.30;99.90;;;;;;4963463;28;20543;-68
2023/12/27 10:32:59;;;;;;;5.47;2.72;;;8.40;99.90;;;;;;4946104;28;20027;-68
2023/12/27 10:35:26;;;;;;;6.05;2.70;;;8.50;99.90;;;;;;4967779;28;20026;-67
2023/12/27 10:37:59;;;;;;;7.00;2.60;;;8.50;99.90;;;;;;4965954;28;20118;-70
2023/12/27 10:40:25;;;;;;;4.40;2.67;;;8.60;99.90;;;;;;4969776;28;20031;-69
2023/12/27 10:42:52;;;;;;;10.43;2.50;;;8.50;99.90;;;;;;4965997;28;20456;-70
2023/12/27 10:45:17;;;;;;;6.45;2.75;;;8.60;99.90;;;;;;4967758;28;20086;-71
2023/12/27 10:47:47;;;;;;;6.55;3.03;;;8.60;99.90;;;;;;4967424;28;20468;-68
2023/12/27 10:50:14;;;;;;;11.02;2.60;;;8.70;99.90;;;;;;4967845;28;20030;-70
2023/12/27 10:52:43;;;;;;;6.55;3.67;;;8.80;99.90;;;;;;4965010;28;20489;-70
2023/12/27 10:55:13;;;;;;;5.82;2.40;;;8.80;99.90;;;;;;4963703;28;20069;-70
2023/12/27 10:57:41;;;;;;;8.60;2.53;;;9.00;99.90;;;;;;4968301;28;20468;-71
2023/12/27 11:00:08;;;;;;;6.10;2.70;;;9.20;99.90;;;;;;4968090;28;20023;-71
2023/12/27 11:02:36;;;;;;;9.63;2.47;;;9.40;99.90;;;;;;4965904;28;20034;-70
2023/12/27 11:05:03;;;;;;;6.78;2.45;;;9.70;99.90;;;;;;4974474;28;20516;-68
2023/12/27 11:07:31;;;;;;;6.32;2.80;;;9.90;99.90;;;;;;4968557;28;20023;-70
2023/12/27 11:10:01;;;;;;;5.32;2.60;;;10.10;99.90;;;;;;4966293;28;20159;-70
2023/12/27 11:12:28;;;;;;;7.20;2.15;;;10.30;99.90;;;;;;4968958;28;20027;-70
2023/12/27 11:14:58;;;;;;;5.03;2.47;;;10.50;99.90;;;;;;4969883;28;20043;-70
2023/12/27 11:17:27;;;;;;;5.78;2.67;;;10.60;99.90;;;;;;4970446;28;20054;-69
2023/12/27 11:19:54;;;;;;;5.20;2.40;;;10.60;99.90;;;;;;4976949;28;20111;-69
2023/12/27 11:22:20;;;;;;;8.98;2.92;;;10.70;99.90;;;;;;4971610;28;20107;-70
2023/12/27 11:24:46;;;;;;;4.72;2.47;;;10.70;99.90;;;;;;4973035;28;20089;-69
2023/12/27 11:27:17;;;;;;;10.55;3.10;;;10.80;99.90;;;;;;4980600;28;20031;-69
2023/12/27 11:29:43;;;;;;;4.22;2.47;;;10.80;99.90;;;;;;4962306;28;20031;-69
2023/12/27 11:32:09;;;;;;;4.18;2.40;;;10.80;99.90;;;;;;4964709;28;20098;-68
2023/12/27 11:34:34;;;;;;;4.72;2.33;;;10.90;99.90;;;;;;4972096;28;20047;-67
2023/12/27 11:37:00;;;;;;;5.57;2.33;;;11.00;99.90;;;;;;4964448;28;20043;-70
2023/12/27 11:39:27;;;;;;;4.28;2.10;;;;;;;;;;4967415;28;20041;-71
2023/12/27 11:41:52;;;;;;;4.82;1.65;;;11.30;99.90;;;;;;4963727;28;21102;-70
2023/12/27 11:44:18;;;;;;;4.60;1.23;;;11.50;99.90;;;;;;4964900;28;20039;-71
2023/12/27 11:46:44;;;;;;;3.05;1.45;;;11.60;99.90;;;;;;4961880;28;20027;-70
2023/12/27 11:49:18;;;;;;;4.38;1.30;;;11.70;99.90;;;;;;4964997;28;20871;-71
2023/12/27 11:51:45;;;;;;;2.45;1.55;;;11.80;99.90;;;;;;4962996;28;20627;-71
2023/12/27 11:54:20;;;;;;;3.42;1.60;;;12.00;99.90;;;;;;4962050;28;20043;-71
2023/12/27 11:56:46;;;;;;;2.85;1.40;;;12.10;99.90;;;;;;4965894;28;20034;-71
2023/12/27 11:59:12;;;;;;;4.70;1.88;;;12.10;99.90;;;;;;4968465;28;20030;-71
2023/12/27 12:01:40;;;;;;;3.72;1.17;;;12.20;99.90;;;;;;4968752;28;20026;-69
2023/12/27 12:04:25;;;;;;;5.15;2.00;;;;;;;;;;4960561;28;20030;-69
2023/12/27 12:06:51;;;;;;;3.33;1.38;;;;;;;;;;4967584;28;20120;-70
2023/12/27 12:09:17;;;;;;;2.97;1.90;;;;;;;;;;4971590;28;20026;-70
2023/12/27 12:11:46;;;;;;;4.47;1.85;;;;;;;;;;4962213;28;20023;-71
2023/12/27 12:14:12;;;;;;;5.93;2.42;;;;;;;;;;4961420;28;20031;-71
2023/12/27 12:16:39;;;;;;;4.13;1.88;;;;;;;;;;4967643;28;20093;-71
2023/12/27 12:19:08;;;;;;;4.35;1.63;;;;;;;;;;4972995;28;20106;-71
2023/12/27 12:21:34;;;;;;;2.75;1.73;;;;;;;;;;4960315;28;20022;-71
2023/12/27 12:24:08;;;;;;;3.25;1.90;;;;;;;;;;4955277;28;20151;-72
2023/12/27 12:26:35;;;;;;;4.28;1.80;;;;;;;;;;4963937;28;20043;-72
2023/12/27 12:29:02;;;;;;;4.43;1.55;;;;;;;;;;4946535;28;20073;-72
2023/12/27 12:31:30;;;;;;;4.97;2.00;;;;;;;;;;4965913;28;20020;-69
2023/12/27 12:33:56;;;;;;;3.53;1.95;;;;;;;;;;4966145;28;20019;-71
2023/12/27 12:36:23;;;;;;;5.38;1.77;;;;;;;;;;4964229;28;20030;-69
2023/12/27 12:38:49;;;;;;;3.00;2.20;;;;;;;;;;4964908;28;20045;-70
2023/12/27 12:41:15;;;;;;;3.90;1.80;;;;;;;;;;4965031;28;20122;-70
2023/12/27 12:43:43;;;;;;;4.82;1.60;;;;;;;;;;4961060;28;20046;-70
2023/12/27 12:46:09;;;;;;;3.72;2.33;;;;;;;;;;4963789;28;20026;-71
2023/12/27 12:48:36;;;;;;;4.57;2.40;;;;;;;;;;4964372;28;20140;-70
2023/12/27 12:51:16;;;;;;;4.85;1.92;;;;;;;;;;4966455;28;20030;-70
2023/12/27 12:53:44;;;;;;;6.47;2.22;;;;;;;;;;4966700;28;20076;-70
2023/12/27 12:56:10;;;;;;;2.75;1.80;;;;;;;;;;4965705;28;20035;-70
2023/12/27 12:58:36;;;;;;;6.25;1.80;;;;;;;;;;4961861;28;20471;-70